Time;durP1;ratioP1;P1;durP2;ratioP2;P2;SDS_P1;SDS_P2;PMS_P1;PMS_P2;Temp;Humidity;BMP_temperature;BMP_pressure;BME280_temperature;BME280_humidity;BME280_pressure;Samples;Min_cycle;Max_cycle;Signal;HPM_P1;HPM_P2
2023/08/04 00:00:40;;;;;;;;;;;18.80;99.90;;;;;;6026375;23;20043;-69
2023/08/04 00:03:06;;;;;;;;;;;18.80;99.90;;;;;;6026694;23;20072;-69
2023/08/04 00:05:31;;;;;;;;;;;18.90;99.90;;;;;;6025511;23;19968;-69
2023/08/04 00:07:57;;;;;;;;;;;19.00;99.90;;;;;;6025789;23;19967;-69
2023/08/04 00:10:22;;;;;;;;;;;18.90;99.90;;;;;;6024875;23;19937;-72
2023/08/04 00:12:48;;;;;;;;;;;18.90;99.90;;;;;;6000758;23;20604;-72
2023/08/04 00:15:13;;;;;;;;;;;18.80;99.90;;;;;;6000941;23;20009;-71
2023/08/04 00:17:39;;;;;;;;;;;18.80;99.90;;;;;;6025769;23;20094;-71
2023/08/04 00:20:08;;;;;;;;;;;18.80;99.90;;;;;;6026624;23;19932;-71
2023/08/04 00:22:34;;;;;;;;;;;18.90;99.90;;;;;;6025869;23;19965;-70
2023/08/04 00:25:00;;;;;;;;;;;19.00;99.90;;;;;;6026534;23;19953;-74
2023/08/04 00:27:25;;;;;;;;;;;19.00;99.90;;;;;;6026013;23;20393;-73
2023/08/04 00:29:51;;;;;;;;;;;19.00;99.90;;;;;;6024686;23;20295;-69
2023/08/04 00:32:16;;;;;;;;;;;19.00;99.90;;;;;;6024097;23;19929;-70
2023/08/04 00:34:42;;;;;;;;;;;19.10;99.90;;;;;;6024133;23;20353;-69
2023/08/04 00:37:07;;;;;;;;;;;19.20;99.90;;;;;;6000897;23;19940;-69
2023/08/04 00:39:33;;;;;;;;;;;19.20;99.90;;;;;;6025049;23;19933;-69
2023/08/04 00:41:58;;;;;;;;;;;19.20;99.90;;;;;;6024395;23;19927;-69
2023/08/04 00:44:24;;;;;;;;;;;19.20;99.90;;;;;;6023396;23;19970;-68
2023/08/04 00:46:49;;;;;;;;;;;19.30;99.90;;;;;;6023227;23;19927;-68
2023/08/04 00:49:18;;;;;;;;;;;19.30;99.90;;;;;;6022883;23;19928;-69
2023/08/04 00:51:45;;;;;;;;;;;19.30;99.90;;;;;;5998286;23;20004;-69
2023/08/04 00:54:10;;;;;;;;;;;19.30;99.90;;;;;;6022383;23;19965;-70
2023/08/04 00:56:36;;;;;;;;;;;19.30;99.90;;;;;;6024561;23;19928;-69
2023/08/04 00:59:02;;;;;;;;;;;19.30;99.90;;;;;;6023685;23;19931;-69
2023/08/04 01:01:27;;;;;;;;;;;19.20;99.90;;;;;;6023412;23;20429;-69
2023/08/04 01:03:55;;;;;;;;;;;19.20;99.90;;;;;;6021788;23;19953;-69
2023/08/04 01:06:40;;;;;;;;;;;19.20;99.90;;;;;;6022680;23;19928;-69
2023/08/04 01:09:23;;;;;;;;;;;19.20;99.90;;;;;;6023169;23;19930;-69
2023/08/04 01:12:02;;;;;;;;;;;19.30;99.90;;;;;;5996980;23;20225;-68
2023/08/04 01:14:28;;;;;;;;;;;19.20;99.90;;;;;;6017403;23;20007;-68
2023/08/04 01:16:53;;;;;;;;;;;19.10;99.90;;;;;;6023004;23;20364;-69
2023/08/04 01:19:19;;;;;;;;;;;19.00;99.90;;;;;;6022624;23;19927;-68
2023/08/04 01:21:45;;;;;;;;;;;19.00;99.90;;;;;;6024545;23;19971;-68
2023/08/04 01:24:10;;;;;;;;;;;19.00;99.90;;;;;;6025037;23;20285;-68
2023/08/04 01:26:39;;;;;;;;;;;19.00;99.90;;;;;;6022526;23;19926;-69
2023/08/04 01:29:06;;;;;;;;;;;19.00;99.90;;;;;;6023375;23;20013;-69
2023/08/04 01:31:32;;;;;;;;;;;18.90;99.90;;;;;;6023168;23;20052;-68
2023/08/04 01:33:58;;;;;;;;;;;18.90;99.90;;;;;;6021662;23;19946;-68
2023/08/04 01:36:23;;;;;;;;;;;18.90;99.90;;;;;;6025967;23;19934;-68
2023/08/04 01:38:49;;;;;;;;;;;18.90;99.90;;;;;;6025645;23;19930;-68
2023/08/04 01:41:15;;;;;;;;;;;18.90;99.90;;;;;;6023892;23;20314;-70
2023/08/04 01:43:40;;;;;;;;;;;18.90;99.90;;;;;;6023825;23;19949;-71
2023/08/04 01:46:06;;;;;;;;;;;18.90;99.90;;;;;;5998005;23;20446;-71
2023/08/04 01:48:31;;;;;;;;;;;18.90;99.90;;;;;;6024174;23;19934;-71
2023/08/04 01:50:57;;;;;;;;;;;18.90;99.90;;;;;;6024498;23;19924;-71
2023/08/04 01:53:22;;;;;;;;;;;18.90;99.90;;;;;;6024581;23;19922;-71
2023/08/04 01:55:47;;;;;;;;;;;18.90;99.90;;;;;;6024905;23;20362;-69
2023/08/04 01:58:13;;;;;;;;;;;18.90;99.90;;;;;;6021301;23;20010;-71
2023/08/04 02:00:38;;;;;;;;;;;18.80;99.90;;;;;;6023232;23;19928;-71
2023/08/04 02:03:04;;;;;;;;;;;18.80;99.90;;;;;;6024747;23;19958;-71
2023/08/04 02:05:30;;;;;;;;;;;18.80;99.90;;;;;;6021816;23;19927;-71
2023/08/04 02:07:55;;;;;;;;;;;18.80;99.90;;;;;;6023147;23;19948;-71
2023/08/04 02:10:21;;;;;;;;;;;18.80;99.90;;;;;;6024359;23;20362;-71
2023/08/04 02:12:46;;;;;;;;;;;18.80;99.90;;;;;;6024795;23;19929;-71
2023/08/04 02:15:12;;;;;;;;;;;18.80;99.90;;;;;;6024604;23;19935;-71
2023/08/04 02:17:37;;;;;;;;;;;18.90;99.90;;;;;;6025295;23;20402;-71
2023/08/04 02:20:03;;;;;;;;;;;18.80;99.90;;;;;;5999603;23;19932;-71
2023/08/04 02:22:28;;;;;;;;;;;18.80;99.90;;;;;;5999704;23;20328;-72
2023/08/04 02:24:54;;;;;;;;;;;18.80;99.90;;;;;;6025757;23;20796;-72
2023/08/04 02:27:19;;;;;;;;;;;18.80;99.90;;;;;;6025315;23;19928;-71
2023/08/04 02:29:45;;;;;;;;;;;18.80;99.90;;;;;;6024008;23;19980;-71
2023/08/04 02:32:11;;;;;;;;;;;18.70;99.90;;;;;;6025587;23;20264;-71
2023/08/04 02:34:36;;;;;;;;;;;18.70;99.90;;;;;;6024684;23;20088;-71
2023/08/04 02:37:02;;;;;;;;;;;18.70;99.90;;;;;;6024225;23;19929;-71
2023/08/04 02:39:27;;;;;;;;;;;18.70;99.90;;;;;;6023984;23;20021;-71
2023/08/04 02:41:53;;;;;;;;;;;18.70;99.90;;;;;;6024407;23;19928;-71
2023/08/04 02:44:18;;;;;;;;;;;18.70;99.90;;;;;;6021090;23;19956;-71
2023/08/04 02:46:45;;;;;;;;;;;18.70;99.90;;;;;;6024564;23;19928;-71
2023/08/04 02:49:10;;;;;;;;;;;18.70;99.90;;;;;;6025161;23;19933;-71
2023/08/04 02:51:36;;;;;;;;;;;18.70;99.90;;;;;;6025026;23;19932;-71
2023/08/04 02:54:01;;;;;;;;;;;18.70;99.90;;;;;;6024880;23;20826;-71
2023/08/04 02:56:27;;;;;;;;;;;18.70;99.90;;;;;;6026209;23;19925;-71
2023/08/04 02:58:52;;;;;;;;;;;18.70;99.90;;;;;;6026378;23;19936;-71
2023/08/04 03:01:18;;;;;;;;;;;18.80;99.90;;;;;;6025875;23;20011;-71
2023/08/04 03:03:43;;;;;;;;;;;18.70;99.90;;;;;;6025046;23;19958;-71
2023/08/04 03:06:09;;;;;;;;;;;18.70;99.90;;;;;;6026581;23;20004;-71
2023/08/04 03:08:35;;;;;;;;;;;18.60;99.90;;;;;;6025417;23;20090;-71
2023/08/04 03:11:00;;;;;;;;;;;18.60;99.90;;;;;;6027228;23;20578;-71
2023/08/04 03:13:26;;;;;;;;;;;18.60;99.90;;;;;;6024800;23;19944;-71
2023/08/04 03:15:59;;;;;;;;;;;18.70;99.90;;;;;;6025779;23;19933;-71
2023/08/04 03:18:24;;;;;;;;;;;18.70;99.90;;;;;;6025947;23;19976;-71
2023/08/04 03:20:50;;;;;;;;;;;18.70;99.90;;;;;;6027484;23;19977;-72
2023/08/04 03:23:15;;;;;;;;;;;18.70;99.90;;;;;;6025956;23;20053;-72
2023/08/04 03:25:41;;;;;;;;;;;18.70;99.90;;;;;;6001200;23;19934;-72
2023/08/04 03:28:07;;;;;;;;;;;18.70;99.90;;;;;;6026203;23;20244;-71
2023/08/04 03:30:32;;;;;;;;;;;18.80;99.90;;;;;;6025245;23;19941;-72
2023/08/04 03:32:58;;;;;;;;;;;18.70;99.90;;;;;;6027184;23;20028;-68
2023/08/04 03:35:23;;;;;;;;;;;18.70;99.90;;;;;;6026093;23;20478;-68
2023/08/04 03:37:49;;;;;;;;;;;18.70;99.90;;;;;;6025927;23;19932;-68
2023/08/04 03:40:15;;;;;;;;;;;18.70;99.90;;;;;;6026467;23;20414;-68
2023/08/04 03:42:40;;;;;;;;;;;18.60;99.90;;;;;;6024433;23;19949;-68
2023/08/04 03:45:06;;;;;;;;;;;18.60;99.90;;;;;;6018324;23;20667;-68
2023/08/04 03:47:32;;;;;;;;;;;18.60;99.90;;;;;;6025238;23;19966;-68
2023/08/04 03:49:58;;;;;;;;;;;18.60;99.90;;;;;;6027366;23;19959;-68
2023/08/04 03:52:23;;;;;;;;;;;18.50;99.90;;;;;;6024594;23;19951;-68
2023/08/04 03:54:49;;;;;;;;;;;18.50;99.90;;;;;;6025426;23;19997;-68
2023/08/04 03:57:14;;;;;;;;;;;18.50;99.90;;;;;;6027602;23;19935;-68
2023/08/04 03:59:40;;;;;;;;;;;18.40;99.90;;;;;;6024401;23;20013;-68
2023/08/04 04:02:06;;;;;;;;;;;18.50;99.90;;;;;;6024427;23;19930;-68
2023/08/04 04:04:31;;;;;;;;;;;18.50;99.90;;;;;;6025230;23;19951;-68
2023/08/04 04:06:57;;;;;;;;;;;18.50;99.90;;;;;;6025034;23;20010;-68
2023/08/04 04:09:22;;;;;;;;;;;18.60;99.90;;;;;;6025172;23;20356;-71
2023/08/04 04:11:48;;;;;;;;;;;18.60;99.90;;;;;;6026530;23;19936;-71
2023/08/04 04:14:13;;;;;;;;;;;18.60;99.90;;;;;;6022488;23;20363;-71
2023/08/04 04:16:39;;;;;;;;;;;18.60;99.90;;;;;;6026728;23;19933;-71
2023/08/04 04:19:04;;;;;;;;;;;18.70;99.90;;;;;;6024417;23;19940;-71
2023/08/04 04:21:30;;;;;;;;;;;18.70;99.90;;;;;;6025942;23;19942;-71
2023/08/04 04:23:55;;;;;;;;;;;18.70;99.90;;;;;;6025570;23;19947;-70
2023/08/04 04:26:21;;;;;;;;;;;18.80;99.90;;;;;;6024834;23;19951;-68
2023/08/04 04:28:46;;;;;;;;;;;18.90;99.90;;;;;;6001277;23;19985;-68
2023/08/04 04:31:12;;;;;;;;;;;18.90;99.90;;;;;;6026527;23;19947;-69
2023/08/04 04:33:37;;;;;;;;;;;18.90;99.90;;;;;;6026336;23;19949;-68
2023/08/04 04:36:03;;;;;;;;;;;18.90;99.90;;;;;;6026247;23;19937;-68
2023/08/04 04:38:28;;;;;;;;;;;18.90;99.90;;;;;;6000687;23;20425;-68
2023/08/04 04:40:58;;;;;;;;;;;18.90;99.90;;;;;;6026778;23;19931;-68
2023/08/04 04:43:23;;;;;;;;;;;18.90;99.90;;;;;;6024562;23;19998;-68
2023/08/04 04:45:49;;;;;;;;;;;18.90;99.90;;;;;;6024379;23;19957;-68
2023/08/04 04:48:15;;;;;;;;;;;19.00;99.90;;;;;;6025777;23;19931;-68
2023/08/04 04:50:40;;;;;;;;;;;18.90;99.90;;;;;;6026364;23;19936;-68
2023/08/04 04:53:06;;;;;;;;;;;18.90;99.90;;;;;;6024470;23;20067;-68
2023/08/04 04:55:31;;;;;;;;;;;18.90;99.90;;;;;;6025319;23;20457;-68
2023/08/04 04:57:57;;;;;;;;;;;19.00;99.90;;;;;;6024937;23;19952;-68
2023/08/04 05:00:22;;;;;;;;;;;18.90;99.90;;;;;;6023580;23;19930;-68
2023/08/04 05:02:48;;;;;;;;;;;18.90;99.90;;;;;;6025416;23;20046;-68
2023/08/04 05:05:14;;;;;;;;;;;18.90;99.90;;;;;;6024729;23;20232;-68
2023/08/04 05:07:39;;;;;;;;;;;18.90;99.90;;;;;;6023528;23;19987;-69
2023/08/04 05:10:05;;;;;;;;;;;18.90;99.90;;;;;;6023096;23;20281;-68
2023/08/04 05:12:30;;;;;;;;;;;18.90;99.90;;;;;;6024140;23;19928;-68
2023/08/04 05:14:56;;;;;;;;;;;18.90;99.90;;;;;;6022646;23;20148;-68
2023/08/04 05:17:21;;;;;;;;;;;19.00;99.90;;;;;;6025372;23;20369;-68
2023/08/04 05:19:47;;;;;;;;;;;19.00;99.90;;;;;;6025191;23;19993;-68
2023/08/04 05:22:13;;;;;;;;;;;19.00;99.90;;;;;;6025031;23;19991;-68
2023/08/04 05:24:38;;;;;;;;;;;19.00;99.90;;;;;;6025180;23;20517;-69
2023/08/04 05:27:04;;;;;;;;;;;19.00;99.90;;;;;;6024376;23;19938;-68
2023/08/04 05:29:30;;;;;;;;;;;19.00;99.90;;;;;;6023632;23;20414;-68
2023/08/04 05:31:55;;;;;;;;;;;19.00;99.90;;;;;;6024992;23;19934;-68
2023/08/04 05:34:20;;;;;;;;;;;19.00;99.90;;;;;;6024975;23;19947;-69
2023/08/04 05:36:46;;;;;;;;;;;19.10;99.90;;;;;;6025369;23;19923;-68
2023/08/04 05:39:12;;;;;;;;;;;19.10;99.90;;;;;;6025014;23;20302;-69
2023/08/04 05:41:37;;;;;;;;;;;19.10;99.90;;;;;;6025012;23;19942;-70
2023/08/04 05:44:03;;;;;;;;;;;19.10;99.90;;;;;;6020960;23;20001;-69
2023/08/04 05:46:28;;;;;;;;;;;19.10;99.90;;;;;;6022600;23;19923;-69
2023/08/04 05:48:54;;;;;;;;;;;19.20;99.90;;;;;;5999781;23;19930;-69
2023/08/04 05:51:19;;;;;;;;;;;19.10;99.90;;;;;;6023973;23;20003;-70
2023/08/04 05:53:45;;;;;;;;;;;19.10;99.90;;;;;;6024216;23;19972;-70
2023/08/04 05:56:10;;;;;;;;;;;19.20;99.90;;;;;;6024958;23;19936;-71
2023/08/04 05:58:36;;;;;;;;;;;19.20;99.90;;;;;;6022676;23;20540;-69
2023/08/04 06:01:01;;;;;;;;;;;19.20;99.90;;;;;;6026667;23;19935;-69
2023/08/04 06:03:27;;;;;;;;;;;19.20;99.90;;;;;;6021985;23;20036;-69
2023/08/04 06:05:52;;;;;;;;;;;19.30;99.90;;;;;;6026157;23;19920;-69
2023/08/04 06:08:18;;;;;;;;;;;19.20;99.90;;;;;;6024677;23;20017;-69
2023/08/04 06:10:44;;;;;;;;;;;19.20;99.90;;;;;;6022811;23;19930;-71
2023/08/04 06:13:09;;;;;;;;;;;19.30;99.90;;;;;;6024209;23;19924;-71
2023/08/04 06:15:35;;;;;;;;;;;19.20;99.90;;;;;;6023337;23;19930;-70
2023/08/04 06:18:00;;;;;;;;;;;19.20;99.90;;;;;;6024482;23;19963;-70
2023/08/04 06:20:26;;;;;;;;;;;19.30;99.90;;;;;;6025034;23;20409;-70
2023/08/04 06:22:52;;;;;;;;;;;19.30;99.90;;;;;;6026076;23;19951;-70
2023/08/04 06:25:17;;;;;;;;;;;19.50;99.90;;;;;;6023922;23;19929;-71
2023/08/04 06:27:43;;;;;;;;;;;19.60;99.90;;;;;;5995952;23;20020;-70
2023/08/04 06:30:09;;;;;;;;;;;19.80;99.90;;;;;;6023692;23;19938;-70
2023/08/04 06:32:34;;;;;;;;;;;19.80;99.90;;;;;;6026284;23;19926;-71
2023/08/04 06:35:00;;;;;;;;;;;19.90;99.90;;;;;;6002272;23;20403;-70
2023/08/04 06:37:25;;;;;;;;;;;19.80;99.90;;;;;;6026607;23;20003;-71
2023/08/04 06:39:52;;;;;;;;;;;19.90;99.90;;;;;;6026328;23;19973;-71
2023/08/04 06:42:17;;;;;;;;;;;20.00;99.90;;;;;;6026322;23;20552;-71
2023/08/04 06:44:43;;;;;;;;;;;20.00;99.90;;;;;;6025986;23;19957;-71
2023/08/04 06:47:09;;;;;;;;;;;20.00;99.90;;;;;;6025776;23;20268;-71
2023/08/04 06:49:35;;;;;;;;;;;20.00;99.90;;;;;;6024930;23;20254;-71
2023/08/04 06:52:01;;;;;;;;;;;20.10;99.90;;;;;;6026246;23;19932;-71
2023/08/04 06:54:26;;;;;;;;;;;20.10;99.90;;;;;;6025073;23;19964;-71
2023/08/04 06:56:52;;;;;;;;;;;20.20;99.90;;;;;;6025309;23;19933;-70
2023/08/04 06:59:17;;;;;;;;;;;20.20;99.90;;;;;;6024678;23;19976;-71
2023/08/04 07:01:42;;;;;;;;;;;20.20;99.90;;;;;;6026780;23;19934;-71
2023/08/04 07:04:08;;;;;;;;;;;20.30;99.90;;;;;;6025568;23;19982;-71
2023/08/04 07:06:34;;;;;;;;;;;20.30;99.90;;;;;;6025210;23;19935;-71
2023/08/04 07:08:59;;;;;;;;;;;20.30;99.90;;;;;;6026145;23;19931;-71
2023/08/04 07:11:25;;;;;;;;;;;20.30;99.90;;;;;;6022982;23;19929;-71
2023/08/04 07:13:50;;;;;;;;;;;20.30;99.90;;;;;;6024190;23;19968;-71
2023/08/04 07:16:16;;;;;;;;;;;20.30;99.90;;;;;;6024559;23;20024;-70
2023/08/04 07:18:41;;;;;;;;;;;20.30;99.90;;;;;;6023640;23;19937;-70
2023/08/04 07:21:08;;;;;;;;;;;20.30;99.90;;;;;;6026752;23;19959;-70
2023/08/04 07:23:33;;;;;;;;;;;20.40;99.90;;;;;;6022883;23;20438;-70
2023/08/04 07:25:59;;;;;;;;;;;20.40;99.90;;;;;;6023085;23;19948;-70
2023/08/04 07:28:24;;;;;;;;;;;20.40;99.90;;;;;;6017034;23;19930;-71
2023/08/04 07:30:50;;;;;;;;;;;20.50;99.90;;;;;;6025378;23;19952;-73
2023/08/04 07:33:15;;;;;;;;;;;20.50;99.90;;;;;;6024117;23;20383;-68
2023/08/04 07:35:41;;;;;;;;;;;20.60;99.90;;;;;;5999587;23;19948;-69
2023/08/04 07:38:06;;;;;;;;;;;20.70;99.90;;;;;;6025950;23;19931;-69
2023/08/04 07:40:37;;;;;;;;;;;20.80;99.90;;;;;;6024966;23;19929;-68
2023/08/04 07:43:03;;;;;;;;;;;20.80;99.90;;;;;;6022897;23;20677;-69
2023/08/04 07:45:28;;;;;;;;;;;21.00;99.90;;;;;;6023441;23;20008;-69
2023/08/04 07:47:54;;;;;;;;;;;21.10;99.90;;;;;;6026673;23;19935;-70
2023/08/04 07:50:19;;;;;;;;;;;21.30;99.90;;;;;;6025138;23;20352;-80
2023/08/04 07:52:45;;;;;;;;;;;21.30;99.90;;;;;;6025164;23;19932;-74
2023/08/04 07:55:10;;;;;;;;;;;21.40;99.90;;;;;;6022439;23;20114;-75
2023/08/04 07:57:36;;;;;;;;;;;21.40;99.90;;;;;;6021321;23;20328;-76
2023/08/04 08:00:01;;;;;;;;;;;21.30;99.90;;;;;;6026080;23;19928;-77
2023/08/04 08:02:27;;;;;;;;;;;21.20;99.90;;;;;;6023713;23;19930;-78
2023/08/04 08:04:53;;;;;;;;;;;21.00;99.90;;;;;;6026266;23;19934;-77
2023/08/04 08:07:18;;;;;;;;;;;20.80;99.90;;;;;;6025431;23;19961;-76
2023/08/04 08:09:44;;;;;;;;;;;20.60;99.90;;;;;;6024113;23;20122;-77
2023/08/04 08:12:09;;;;;;;;;;;20.60;99.90;;;;;;6023608;23;19931;-77
2023/08/04 08:14:35;;;;;;;;;;;20.70;99.90;;;;;;6018700;23;19937;-76
2023/08/04 08:17:01;;;;;;;;;;;20.70;99.90;;;;;;6022924;23;19929;-79
2023/08/04 08:19:26;;;;;;;;;;;20.80;99.90;;;;;;6022378;23;19940;-77
2023/08/04 08:21:53;;;;;;;;;;;20.90;99.90;;;;;;6024023;23;20427;-83
2023/08/04 08:24:19;;;;;;;;;;;21.00;99.90;;;;;;6024563;23;20009;-79
2023/08/04 08:26:44;;;;;;;;;;;21.10;99.90;;;;;;6018473;23;19934;-78
2023/08/04 08:29:11;;;;;;;;;;;21.20;99.90;;;;;;6022379;23;20031;-78
2023/08/04 08:31:37;;;;;;;;;;;21.30;99.90;;;;;;6025958;23;19957;-79
2023/08/04 08:34:02;;;;;;;;;;;21.30;99.90;;;;;;5998881;23;20501;-77
2023/08/04 08:36:28;;;;;;;;;;;21.30;99.90;;;;;;6018221;23;20431;-84
2023/08/04 08:38:53;;;;;;;;;;;21.20;99.90;;;;;;5995271;23;19930;-82
2023/08/04 08:41:19;;;;;;;;;;;21.20;99.90;;;;;;6025802;23;19932;-83
2023/08/04 08:43:44;;;;;;;;;;;21.20;99.90;;;;;;6022544;23;21003;-75
2023/08/04 08:46:10;;;;;;;;;;;21.10;99.90;;;;;;6023216;23;20172;-77
2023/08/04 08:48:37;;;;;;;;;;;21.20;99.90;;;;;;6015639;23;20148;-77
2023/08/04 08:51:06;;;;;;;;;;;21.20;99.90;;;;;;6046513;23;19920;-76
2023/08/04 08:53:31;;;;;;;;;;;21.20;99.90;;;;;;6019477;23;19925;-76
2023/08/04 08:55:59;;;;;;;;;;;21.10;99.90;;;;;;6020110;23;19967;-76
2023/08/04 08:58:26;;;;;;;;;;;21.10;99.90;;;;;;6020142;23;20586;-76
2023/08/04 09:00:52;;;;;;;;;;;21.10;99.90;;;;;;6023148;23;19941;-75
2023/08/04 09:03:18;;;;;;;;;;;21.10;99.90;;;;;;6021002;23;20690;-74
2023/08/04 09:05:43;;;;;;;;;;;21.00;99.90;;;;;;6024906;23;19932;-67
2023/08/04 09:08:09;;;;;;;;;;;21.00;99.90;;;;;;6023982;23;19934;-67
2023/08/04 09:10:37;;;;;;;;;;;21.00;99.90;;;;;;6019789;23;19959;-68
2023/08/04 09:13:07;;;;;;;;;;;20.90;99.90;;;;;;6021408;23;19932;-67
2023/08/04 09:15:46;;;;;;;;;;;20.90;99.90;;;;;;6024378;23;20339;-67
2023/08/04 09:18:23;;;;;;;;;;;20.80;99.90;;;;;;6022791;23;20244;-67
2023/08/04 09:20:48;;;;;;;;;;;20.80;99.90;;;;;;6022826;23;19937;-67
2023/08/04 09:23:14;;;;;;;;;;;20.80;99.90;;;;;;6022745;23;20396;-75
2023/08/04 09:25:50;;;;;;;;;;;20.90;99.90;;;;;;6024664;23;20342;-74
2023/08/04 09:28:17;;;;;;;;;;;20.90;99.90;;;;;;6020894;23;20000;-74
2023/08/04 09:30:59;;;;;;;;;;;20.90;99.90;;;;;;6045202;23;19940;-73
2023/08/04 09:33:24;;;;;;;;;;;20.70;99.90;;;;;;6022395;23;20638;-73
2023/08/04 09:35:59;;;;;;;;;;;20.60;99.90;;;;;;6023688;23;19934;-75
2023/08/04 09:38:24;;;;;;;;;;;20.70;99.90;;;;;;6022837;23;19930;-77
2023/08/04 09:40:58;;;;;;;;;;;20.70;99.90;;;;;;6016870;23;20001;-76
2023/08/04 09:43:24;;;;;;;;;;;20.60;99.90;;;;;;6021636;23;20042;-76
2023/08/04 09:45:54;;;;;;;;;;;20.60;99.90;;;;;;6023008;23;20014;-77
2023/08/04 09:48:24;;;;;;;;;;;20.60;99.90;;;;;;6021627;23;19972;-77
2023/08/04 09:50:50;;;;;;;;;;;20.60;99.90;;;;;;6023930;23;20011;-77
2023/08/04 09:53:16;;;;;;;;;;;20.60;99.90;;;;;;5995826;23;19935;-76
2023/08/04 09:55:42;;;;;;;;;;;20.70;99.90;;;;;;6021809;23;19964;-76
2023/08/04 09:58:08;;;;;;;;;;;20.80;99.90;;;;;;5997958;23;20016;-79
2023/08/04 10:00:34;;;;;;;;;;;20.90;99.90;;;;;;5999167;23;20005;-76
2023/08/04 10:02:59;;;;;;;;;;;21.00;99.90;;;;;;6021688;23;19960;-77
2023/08/04 10:05:25;;;;;;;;;;;21.10;99.90;;;;;;6023788;23;20357;-74
2023/08/04 10:07:51;;;;;;;;;;;21.20;99.90;;;;;;5992993;23;19933;-76
2023/08/04 10:10:17;;;;;;;;;;;21.40;99.90;;;;;;6023239;23;19934;-77
2023/08/04 10:12:43;;;;;;;;;;;21.50;99.90;;;;;;6021236;23;19928;-73
2023/08/04 10:15:09;;;;;;;;;;;21.50;99.90;;;;;;6020156;23;20092;-75
2023/08/04 10:17:35;;;;;;;;;;;21.60;99.90;;;;;;6018096;23;19930;-77
2023/08/04 10:20:05;;;;;;;;;;;21.70;99.90;;;;;;6017486;23;19928;-77
2023/08/04 10:22:31;;;;;;;;;;;21.80;99.90;;;;;;6018592;23;19930;-76
2023/08/04 10:24:57;;;;;;;;;;;21.90;99.90;;;;;;6017354;23;19930;-74
2023/08/04 10:27:22;;;;;;;;;;;22.00;99.90;;;;;;6019339;23;20037;-74
2023/08/04 10:30:01;;;;;;;;;;;22.20;99.90;;;;;;6016846;23;19922;-75
2023/08/04 10:32:36;;;;;;;;;;;22.30;99.90;;;;;;6015779;23;19931;-75
2023/08/04 10:35:03;;;;;;;;;;;22.50;99.90;;;;;;6018911;23;19952;-69
2023/08/04 10:37:29;;;;;;;;;;;22.60;99.90;;;;;;6012635;23;19925;-69
2023/08/04 10:39:59;;;;;;;;;;;22.60;99.90;;;;;;6017527;23;19941;-68
2023/08/04 10:42:28;;;;;;;;;;;22.60;99.90;;;;;;6019406;23;19924;-68
2023/08/04 10:44:54;;;;;;;;;;;22.50;99.90;;;;;;6016381;23;19957;-68
2023/08/04 10:47:39;;;;;;;;;;;22.60;99.90;;;;;;6018867;23;19957;-68
2023/08/04 10:50:06;;;;;;;;;;;22.60;99.90;;;;;;6018460;23;20347;-67
2023/08/04 10:52:32;;;;;;;;;;;22.60;99.90;;;;;;6017793;23;20103;-67
2023/08/04 10:54:58;;;;;;;;;;;22.60;99.90;;;;;;6016347;23;19977;-68
2023/08/04 10:57:26;;;;;;;;;;;22.70;99.90;;;;;;6007239;23;19961;-71
2023/08/04 10:59:52;;;;;;;;;;;22.80;99.90;;;;;;5990408;23;19947;-70
2023/08/04 11:02:18;;;;;;;;;;;22.90;99.90;;;;;;6013488;23;19929;-70
2023/08/04 11:04:45;;;;;;;;;;;22.90;99.90;;;;;;6018969;23;19950;-70
2023/08/04 11:07:11;;;;;;;;;;;23.00;99.90;;;;;;6018661;23;20264;-70
2023/08/04 11:09:37;;;;;;;;;;;23.10;99.90;;;;;;6018734;23;20657;-70
2023/08/04 11:12:05;;;;;;;;;;;23.20;99.90;;;;;;6018395;23;19932;-70
2023/08/04 11:14:31;;;;;;;;;;;23.20;99.90;;;;;;6018940;23;19931;-72
2023/08/04 11:17:00;;;;;;;;;;;23.30;99.90;;;;;;6017430;23;19926;-73
2023/08/04 11:19:26;;;;;;;;;;;23.40;99.90;;;;;;6019949;23;19936;-73
2023/08/04 11:21:51;;;;;;;;;;;23.50;99.90;;;;;;5994779;23;20581;-73
2023/08/04 11:24:21;;;;;;;;;;;23.50;99.90;;;;;;6019490;23;19952;-71
2023/08/04 11:26:47;;;;;;;;;;;23.50;99.90;;;;;;6020008;23;19955;-73
2023/08/04 11:29:13;;;;;;;;;;;23.70;99.90;;;;;;6020227;23;19999;-72
2023/08/04 11:31:40;;;;;;;;;;;23.80;99.90;;;;;;5992180;23;19936;-73
2023/08/04 11:34:11;;;;;;;;;;;23.90;99.90;;;;;;6021764;23;19950;-73
2023/08/04 11:36:38;;;;;;;;;;;24.10;99.90;;;;;;6021804;23;19929;-73
2023/08/04 11:39:04;;;;;;;;;;;24.10;99.90;;;;;;6020887;23;19976;-74
2023/08/04 11:41:30;;;;;;;;;;;24.20;99.90;;;;;;6018039;23;19929;-74
2023/08/04 11:43:55;;;;;;;;;;;24.20;99.90;;;;;;6021215;23;19956;-72
2023/08/04 11:46:21;;;;;;;;;;;24.10;99.90;;;;;;6018522;23;20447;-73
2023/08/04 11:48:46;;;;;;;;;;;24.10;99.90;;;;;;6019804;23;19921;-69
2023/08/04 11:51:14;;;;;;;;;;;24.20;99.90;;;;;;5995846;23;20399;-71
2023/08/04 11:53:43;;;;;;;;;;;24.20;99.90;;;;;;6020580;23;19978;-70
2023/08/04 11:56:09;;;;;;;;;;;24.20;99.90;;;;;;6021903;23;20009;-70
2023/08/04 11:58:35;;;;;;;;;;;24.20;99.90;;;;;;6019787;23;20009;-71
2023/08/04 12:01:01;;;;;;;;;;;24.30;99.90;;;;;;6020140;23;20707;-70
2023/08/04 12:03:47;;;;;;;;;;;24.40;99.90;;;;;;5992599;23;20035;-70
2023/08/04 12:06:20;;;;;;;;;;;24.50;99.90;;;;;;6016108;23;19929;-70
2023/08/04 12:08:49;;;;;;;;;;;24.60;99.90;;;;;;6018545;23;19930;-70
2023/08/04 12:11:15;;;;;;;;;;;24.60;99.90;;;;;;6019661;23;19929;-70
2023/08/04 12:13:41;;;;;;;;;;;24.50;99.90;;;;;;6019489;23;20008;-70
2023/08/04 12:16:07;;;;;;;;;;;24.40;99.90;;;;;;6019859;23;19933;-71
2023/08/04 12:18:33;;;;;;;;;;;24.50;99.90;;;;;;5996369;23;19926;-70
2023/08/04 12:20:59;;;;;;;;;;;24.60;99.90;;;;;;5993306;23;19933;-70
2023/08/04 12:23:24;;;;;;;;;;;24.80;99.90;;;;;;6015253;23;19953;-70
2023/08/04 12:25:50;;;;;;;;;;;24.80;99.90;;;;;;6015031;23;19995;-72
2023/08/04 12:28:16;;;;;;;;;;;24.90;99.90;;;;;;5990737;23;19944;-70
2023/08/04 12:30:42;;;;;;;;;;;24.90;99.90;;;;;;6017595;23;19930;-70
2023/08/04 12:33:07;;;;;;;;;;;25.00;99.90;;;;;;5995580;23;19928;-70
2023/08/04 12:35:33;;;;;;;;;;;25.10;99.90;;;;;;6016739;23;19943;-71
2023/08/04 12:38:04;;;;;;;;;;;25.00;99.90;;;;;;6017987;23;20274;-69
2023/08/04 12:40:30;;;;;;;;;;;25.00;99.90;;;;;;6016652;23;19959;-71
2023/08/04 12:42:56;;;;;;;;;;;25.10;99.90;;;;;;6014917;23;20040;-71
2023/08/04 12:45:22;;;;;;;;;;;25.20;99.90;;;;;;5993152;23;20049;-72
2023/08/04 12:47:47;;;;;;;;;;;25.30;99.90;;;;;;6021250;23;19979;-72
2023/08/04 12:50:13;;;;;;;;;;;25.40;99.90;;;;;;6017645;23;20391;-73
2023/08/04 12:52:38;;;;;;;;;;;25.50;99.90;;;;;;6016937;23;19926;-73
2023/08/04 12:55:04;;;;;;;;;;;25.50;99.90;;;;;;6020598;23;19969;-73
2023/08/04 12:57:30;;;;;;;;;;;25.50;99.90;;;;;;5994151;23;20301;-74
2023/08/04 12:59:56;;;;;;;;;;;25.50;99.90;;;;;;6018644;23;19972;-73
2023/08/04 13:02:21;;;;;;;;;;;25.50;99.90;;;;;;5994356;23;19929;-75
2023/08/04 13:04:47;;;;;;;;;;;25.40;99.90;;;;;;6015454;23;19953;-74
2023/08/04 13:07:13;;;;;;;;;;;25.50;99.90;;;;;;5994959;23;19996;-74
2023/08/04 13:09:38;;;;;;;;;;;25.50;99.90;;;;;;6006061;23;19963;-72
2023/08/04 13:12:04;;;;;;;;;;;25.50;99.90;;;;;;5994970;23;19934;-71
2023/08/04 13:14:29;;;;;;;;;;;25.60;99.90;;;;;;6018977;23;19933;-72
2023/08/04 13:16:55;;;;;;;;;;;25.70;99.90;;;;;;6020255;23;19941;-71
2023/08/04 13:19:20;;;;;;;;;;;25.80;99.90;;;;;;6017357;23;19939;-71
2023/08/04 13:21:46;;;;;;;;;;;25.90;99.90;;;;;;6018395;23;20747;-74
2023/08/04 13:24:12;;;;;;;;;;;25.90;99.90;;;;;;5993630;23;19970;-72
2023/08/04 13:26:38;;;;;;;;;;;25.90;99.90;;;;;;6022210;23;20019;-75
2023/08/04 13:29:04;;;;;;;;;;;25.80;99.90;;;;;;5997080;23;19980;-74
2023/08/04 13:31:29;;;;;;;;;;;25.80;99.90;;;;;;6022028;23;19954;-72
2023/08/04 13:33:55;;;;;;;;;;;25.70;99.90;;;;;;6023900;23;19946;-74
2023/08/04 13:36:20;;;;;;;;;;;25.70;99.90;;;;;;6023253;23;20642;-76
2023/08/04 13:38:48;;;;;;;;;;;25.80;99.90;;;;;;6023608;23;19990;-73
2023/08/04 13:41:13;;;;;;;;;;;25.80;99.90;;;;;;6021795;23;20362;-75
2023/08/04 13:43:39;;;;;;;;;;;25.90;99.90;;;;;;5996913;23;20010;-73
2023/08/04 13:46:05;;;;;;;;;;;25.90;99.90;;;;;;6022313;23;20368;-73
2023/08/04 13:48:30;;;;;;;;;;;26.00;99.90;;;;;;6025174;23;20399;-73
2023/08/04 13:50:56;;;;;;;;;;;26.20;99.90;;;;;;5997419;23;20014;-72
2023/08/04 13:53:21;;;;;;;;;;;26.30;99.90;;;;;;6022516;23;19925;-71
2023/08/04 13:55:47;;;;;;;;;;;26.20;99.90;;;;;;6022978;23;20031;-73
2023/08/04 13:58:12;;;;;;;;;;;26.20;99.90;;;;;;6022406;23;20449;-72
2023/08/04 14:00:38;;;;;;;;;;;26.30;99.90;;;;;;6019508;23;19931;-72
2023/08/04 14:03:04;;;;;;;;;;;26.40;99.90;;;;;;6023493;23;20448;-66
2023/08/04 14:05:29;;;;;;;;;;;26.40;99.90;;;;;;6022874;23;20004;-66
2023/08/04 14:07:55;;;;;;;;;;;26.50;99.90;;;;;;6023776;23;19983;-66
2023/08/04 14:10:21;;;;;;;;;;;26.50;99.90;;;;;;6021122;23;19955;-66